createdAt,value
2023-03-16T00:01:03.461Z,73.90
2023-03-16T00:03:30.573Z,60.60
2023-03-16T00:06:05.008Z,71.50
2023-03-16T00:08:34.209Z,62.10
2023-03-16T00:11:02.762Z,94.60
2023-03-16T00:13:30.608Z,96.00
2023-03-16T00:16:07.122Z,70.40
2023-03-16T00:18:38.425Z,65.30
2023-03-16T00:21:06.189Z,54.80
2023-03-16T00:23:35.454Z,62.00
2023-03-16T00:26:08.651Z,53.10
2023-03-16T00:28:38.901Z,63.80
2023-03-16T00:31:11.374Z,61.70
2023-03-16T00:33:44.803Z,58.10
2023-03-16T00:36:12.320Z,71.90
2023-03-16T00:38:48.702Z,54.10
2023-03-16T00:41:16.480Z,69.00
2023-03-16T00:43:44.918Z,66.80
2023-03-16T00:46:15.226Z,46.60
2023-03-16T00:48:45.868Z,45.00
2023-03-16T00:51:16.083Z,51.50
2023-03-16T00:53:45.788Z,59.80
2023-03-16T00:56:13.265Z,41.70
2023-03-16T00:58:42.652Z,74.10
2023-03-16T01:01:18.354Z,39.00
2023-03-16T01:03:46.860Z,46.10
2023-03-16T01:06:17.208Z,54.30
2023-03-16T01:08:44.343Z,44.30
2023-03-16T01:11:17.036Z,60.20
2023-03-16T01:13:49.159Z,31.90
2023-03-16T01:16:22.803Z,58.70
2023-03-16T01:18:50.006Z,49.60
2023-03-16T01:21:17.323Z,67.70
2023-03-16T01:23:44.647Z,68.70
2023-03-16T01:26:12.807Z,68.90
2023-03-16T01:28:39.827Z,51.60
2023-03-16T01:31:11.779Z,58.30
2023-03-16T01:33:38.839Z,41.70
2023-03-16T01:36:11.674Z,45.90
2023-03-16T01:38:52.468Z,44.40
2023-03-16T01:41:19.769Z,48.10
2023-03-16T01:43:46.867Z,51.40
2023-03-16T01:46:27.546Z,39.60
2023-03-16T01:49:01.898Z,46.70
2023-03-16T01:51:35.351Z,64.80
2023-03-16T01:54:14.033Z,66.40
2023-03-16T01:57:07.497Z,44.40
2023-03-16T02:00:18.548Z,54.30
2023-03-16T02:03:07.531Z,64.80
2023-03-16T02:05:49.170Z,61.70
2023-03-16T02:08:18.993Z,49.20
2023-03-16T02:10:46.281Z,44.00
2023-03-16T02:13:13.591Z,59.00
2023-03-16T02:15:41.323Z,44.60
2023-03-16T02:18:08.722Z,53.90
2023-03-16T02:20:42.092Z,54.10
2023-03-16T02:23:18.230Z,52.80
2023-03-16T02:26:01.901Z,50.20
2023-03-16T02:28:47.668Z,62.80
2023-03-16T02:31:19.751Z,67.80
2023-03-16T02:33:49.816Z,48.50
2023-03-16T02:36:18.453Z,56.10
2023-03-16T02:38:46.487Z,43.50
2023-03-16T02:41:18.684Z,72.10
2023-03-16T02:43:58.840Z,52.30
2023-03-16T02:46:35.351Z,60.10
2023-03-16T02:49:10.603Z,75.60
2023-03-16T02:51:38.187Z,55.90
2023-03-16T02:54:05.217Z,47.60
2023-03-16T02:56:36.786Z,55.80
2023-03-16T02:59:03.945Z,46.00
2023-03-16T03:01:34.516Z,65.70
2023-03-16T03:04:04.265Z,38.90
2023-03-16T03:06:33.185Z,57.30
2023-03-16T03:09:02.714Z,50.00
2023-03-16T03:11:30.625Z,55.20
2023-03-16T03:13:57.792Z,39.00
2023-03-16T03:16:26.648Z,44.50
2023-03-16T03:18:55.488Z,47.40
2023-03-16T03:21:24.492Z,56.60
2023-03-16T03:23:51.621Z,45.90
2023-03-16T03:26:19.444Z,49.80
2023-03-16T03:28:48.878Z,51.40
2023-03-16T03:31:20.226Z,38.80
2023-03-16T03:33:47.989Z,61.10
2023-03-16T03:36:15.633Z,25.30
2023-03-16T03:38:43.860Z,34.40
2023-03-16T03:41:13.547Z,37.10
2023-03-16T03:43:41.527Z,38.30
2023-03-16T03:46:18.700Z,46.10
2023-03-16T03:48:46.586Z,47.00
2023-03-16T03:51:13.929Z,43.40
2023-03-16T03:53:58.461Z,47.20
2023-03-16T03:56:37.899Z,24.40
2023-03-16T03:59:06.419Z,57.20
2023-03-16T04:01:53.273Z,54.60
2023-03-16T04:04:21.470Z,54.50
2023-03-16T04:06:50.737Z,50.20
2023-03-16T04:09:18.208Z,60.80
2023-03-16T04:11:45.603Z,60.50
2023-03-16T04:14:12.623Z,37.30
2023-03-16T04:16:39.945Z,36.50
2023-03-16T04:19:07.047Z,46.80
2023-03-16T04:21:34.221Z,70.30
2023-03-16T04:24:09.119Z,56.50
2023-03-16T04:26:37.648Z,56.10
2023-03-16T04:29:05.029Z,54.90
2023-03-16T04:31:35.718Z,57.50
2023-03-16T04:34:03.105Z,45.60
2023-03-16T04:36:32.613Z,50.00
2023-03-16T04:39:04.349Z,44.80
2023-03-16T04:41:32.362Z,73.80
2023-03-16T04:44:22.420Z,49.30
2023-03-16T04:46:50.497Z,69.70
2023-03-16T04:49:21.357Z,38.80
2023-03-16T04:51:49.019Z,45.00
2023-03-16T04:54:18.779Z,67.50
2023-03-16T04:56:46.478Z,51.70
2023-03-16T04:59:28.917Z,57.70
2023-03-16T05:02:06.146Z,58.70
2023-03-16T05:04:34.020Z,76.70
2023-03-16T05:07:07.871Z,76.90
2023-03-16T05:09:37.489Z,58.40
2023-03-16T05:12:04.834Z,81.50
2023-03-16T05:14:35.520Z,51.80
2023-03-16T05:17:14.216Z,68.80
2023-03-16T05:19:41.838Z,67.90
2023-03-16T05:22:09.558Z,66.40
2023-03-16T05:24:37.392Z,75.20
2023-03-16T05:27:08.436Z,61.20
2023-03-16T05:29:36.713Z,59.30
2023-03-16T05:32:06.689Z,75.80
2023-03-16T05:34:34.216Z,99.80
2023-03-16T05:37:01.252Z,65.00
2023-03-16T05:39:30.273Z,51.60
2023-03-16T05:41:57.833Z,56.30
2023-03-16T05:44:36.551Z,58.00
2023-03-16T05:47:09.730Z,64.40
2023-03-16T05:49:40.241Z,55.50
2023-03-16T05:52:13.343Z,57.10
2023-03-16T05:54:40.585Z,44.50
2023-03-16T05:57:09.138Z,63.20
2023-03-16T05:59:36.470Z,51.70
2023-03-16T06:02:04.086Z,60.40
2023-03-16T06:04:31.531Z,76.10
2023-03-16T06:06:59.229Z,65.90
2023-03-16T06:09:29.274Z,77.00
2023-03-16T06:11:56.846Z,55.10
2023-03-16T06:14:24.427Z,99.30
2023-03-16T06:16:56.151Z,70.70
2023-03-16T06:19:23.233Z,82.60
2023-03-16T06:21:54.506Z,91.10
2023-03-16T06:24:25.819Z,123.70
2023-03-16T06:26:53.552Z,139.00
2023-03-16T06:29:21.729Z,136.90
2023-03-16T06:31:50.788Z,145.90
2023-03-16T06:34:18.924Z,104.20
2023-03-16T06:36:46.193Z,86.60
2023-03-16T06:39:13.951Z,100.80
2023-03-16T06:41:43.714Z,104.40
2023-03-16T06:44:15.441Z,90.30
2023-03-16T06:46:52.096Z,150.70
2023-03-16T06:49:23.532Z,102.90
2023-03-16T06:51:50.740Z,110.90
2023-03-16T06:54:17.907Z,130.90
2023-03-16T06:56:46.411Z,107.90
2023-03-16T06:59:13.626Z,113.90
2023-03-16T07:01:43.917Z,107.70
2023-03-16T07:04:12.246Z,109.70
2023-03-16T07:06:39.669Z,123.90
2023-03-16T07:09:09.769Z,107.50
2023-03-16T07:11:37.123Z,93.10
2023-03-16T07:14:11.329Z,108.40
2023-03-16T07:16:43.214Z,94.60
2023-03-16T07:19:11.629Z,120.30
2023-03-16T07:21:40.403Z,97.20
2023-03-16T07:24:12.530Z,106.70
2023-03-16T07:26:41.013Z,95.60
2023-03-16T07:29:09.514Z,107.80
2023-03-16T07:31:37.459Z,105.80
2023-03-16T07:34:07.757Z,59.50
2023-03-16T07:36:41.441Z,116.00
2023-03-16T07:39:08.539Z,100.80
2023-03-16T07:41:36.967Z,91.10
2023-03-16T07:47:00.021Z,92.00
2023-03-16T07:50:10.885Z,92.10
2023-03-16T07:52:43.646Z,107.80
2023-03-16T07:55:11.370Z,94.70
2023-03-16T07:57:47.398Z,97.70
2023-03-16T08:00:16.869Z,117.90
2023-03-16T08:02:44.783Z,98.00
2023-03-16T08:05:14.884Z,111.40
2023-03-16T08:10:16.620Z,110.70
2023-03-16T08:12:51.633Z,89.50
2023-03-16T08:15:19.131Z,81.40
2023-03-16T08:17:47.401Z,91.90
2023-03-16T08:20:26.552Z,71.60
2023-03-16T08:22:54.616Z,86.40
2023-03-16T08:25:26.092Z,81.10
2023-03-16T08:28:10.266Z,70.50
2023-03-16T08:30:44.397Z,119.90
2023-03-16T08:33:36.784Z,80.50
2023-03-16T08:36:09.828Z,75.70
2023-03-16T08:38:39.668Z,87.70
2023-03-16T08:41:08.820Z,97.30
2023-03-16T08:43:36.966Z,101.50
2023-03-16T08:46:06.294Z,105.10
2023-03-16T08:48:43.414Z,78.00
2023-03-16T08:51:13.330Z,111.90
2023-03-16T08:53:40.256Z,88.10
2023-03-16T08:56:11.931Z,107.90
2023-03-16T08:58:45.446Z,87.10
2023-03-16T09:01:14.733Z,122.40
2023-03-16T09:03:45.878Z,96.60
2023-03-16T09:06:16.635Z,100.40
2023-03-16T09:08:44.963Z,96.80
2023-03-16T09:11:18.307Z,91.40
2023-03-16T09:13:46.800Z,97.10
2023-03-16T09:16:18.511Z,95.90
2023-03-16T09:18:45.925Z,98.40
2023-03-16T09:21:13.385Z,76.10
2023-03-16T09:23:42.358Z,92.00
2023-03-16T09:26:11.981Z,81.10
2023-03-16T09:28:41.677Z,90.30
2023-03-16T09:31:17.395Z,97.90
2023-03-16T09:33:44.449Z,75.60
2023-03-16T09:36:13.572Z,71.50
2023-03-16T09:38:44.079Z,90.20
2023-03-16T09:41:34.609Z,79.10
2023-03-16T09:44:11.986Z,94.10
2023-03-16T09:46:45.027Z,110.60
2023-03-16T09:49:17.144Z,89.20
2023-03-16T09:51:48.394Z,77.40
2023-03-16T09:54:18.843Z,75.40
2023-03-16T09:56:49.780Z,88.40
2023-03-16T09:59:18.524Z,74.00
2023-03-16T10:01:54.776Z,86.50
2023-03-16T10:04:39.146Z,80.00
2023-03-16T10:07:20.620Z,62.10
2023-03-16T10:10:02.190Z,84.50
2023-03-16T10:12:41.479Z,80.80
2023-03-16T10:15:15.919Z,64.80
2023-03-16T10:18:01.801Z,71.60
2023-03-16T10:20:33.695Z,54.70
2023-03-16T10:23:12.860Z,77.90
2023-03-16T10:25:49.427Z,72.40
2023-03-16T10:28:21.016Z,70.50
2023-03-16T10:30:57.577Z,84.90
2023-03-16T10:33:34.221Z,56.30
2023-03-16T10:36:05.108Z,72.10
2023-03-16T10:38:46.251Z,65.50
2023-03-16T10:41:25.438Z,55.60
2023-03-16T10:44:11.476Z,73.60
2023-03-16T10:46:50.967Z,68.40
2023-03-16T10:49:27.775Z,73.80
2023-03-16T10:52:02.373Z,67.50
2023-03-16T10:54:40.602Z,87.60
2023-03-16T10:57:27.740Z,63.50
2023-03-16T10:59:59.540Z,67.30
2023-03-16T11:02:35.198Z,58.30
2023-03-16T11:05:17.916Z,78.70
2023-03-16T11:07:54.176Z,44.20
2023-03-16T11:10:38.074Z,56.90
2023-03-16T11:13:18.237Z,35.40
2023-03-16T11:15:51.197Z,52.90
2023-03-16T11:18:35.209Z,59.70
2023-03-16T11:21:12.380Z,59.20
2023-03-16T11:23:49.151Z,70.40
2023-03-16T11:26:27.355Z,49.90
2023-03-16T11:29:03.294Z,75.10
2023-03-16T11:32:00.312Z,71.50
2023-03-16T11:34:30.241Z,66.90
2023-03-16T11:37:21.216Z,72.30
2023-03-16T11:39:54.369Z,63.40
2023-03-16T11:42:30.561Z,76.50
2023-03-16T11:45:22.366Z,75.40
2023-03-16T11:48:06.126Z,92.60
2023-03-16T11:50:44.568Z,74.30
2023-03-16T11:53:14.537Z,77.70
2023-03-16T11:56:16.941Z,88.80
2023-03-16T11:59:15.416Z,81.30
2023-03-16T12:02:00.741Z,90.70
2023-03-16T12:04:40.595Z,73.70
2023-03-16T12:07:34.872Z,88.70
2023-03-16T12:10:21.800Z,73.00
2023-03-16T12:13:04.399Z,94.20
2023-03-16T12:18:29.743Z,81.90
2023-03-16T12:21:01.962Z,84.00
2023-03-16T12:23:35.469Z,79.30
2023-03-16T12:26:03.681Z,85.90
2023-03-16T12:28:32.889Z,92.50
2023-03-16T12:31:14.219Z,107.80
2023-03-16T12:33:56.467Z,86.80
2023-03-16T12:36:26.158Z,89.00
2023-03-16T12:39:06.946Z,77.60
2023-03-16T12:41:56.760Z,101.70
2023-03-16T12:44:33.791Z,72.30
2023-03-16T12:47:12.601Z,93.40
2023-03-16T12:49:39.861Z,78.90
2023-03-16T12:52:11.987Z,79.80
2023-03-16T12:55:05.538Z,76.80
2023-03-16T12:57:33.266Z,76.70
2023-03-16T13:00:01.279Z,82.90
2023-03-16T13:02:32.146Z,75.30
2023-03-16T13:05:12.447Z,70.80
2023-03-16T13:07:51.972Z,83.10
2023-03-16T13:10:21.998Z,81.30
2023-03-16T13:12:50.973Z,64.40
2023-03-16T13:15:21.693Z,60.90
2023-03-16T13:18:09.390Z,56.10
2023-03-16T13:21:13.830Z,75.80
2023-03-16T13:24:19.948Z,76.30
2023-03-16T13:26:51.730Z,79.80
2023-03-16T13:29:32.756Z,57.50
2023-03-16T13:32:02.890Z,64.30
2023-03-16T13:34:35.772Z,70.70
2023-03-16T13:37:04.098Z,59.90
2023-03-16T13:39:32.405Z,64.80
2023-03-16T13:42:09.263Z,64.10
2023-03-16T13:44:41.503Z,78.80
2023-03-16T13:47:19.495Z,66.50
2023-03-16T13:49:55.230Z,71.00
2023-03-16T13:52:42.688Z,81.90
2023-03-16T13:55:21.795Z,76.10
2023-03-16T14:00:20.511Z,67.90
2023-03-16T14:02:53.161Z,82.70
2023-03-16T14:05:30.182Z,61.20
2023-03-16T14:08:00.175Z,71.30
2023-03-16T14:10:33.751Z,74.40
2023-03-16T14:13:21.743Z,94.30
2023-03-16T14:15:50.090Z,65.50
2023-03-16T14:18:22.475Z,66.70
2023-03-16T14:20:52.891Z,73.40
2023-03-16T14:23:43.688Z,84.70
2023-03-16T14:26:21.256Z,68.10
2023-03-16T14:29:04.724Z,86.20
2023-03-16T14:31:39.110Z,100.70
2023-03-16T14:34:26.967Z,90.00
2023-03-16T14:37:19.670Z,97.00
2023-03-16T14:40:02.098Z,92.90
2023-03-16T14:42:30.741Z,91.40
2023-03-16T14:45:10.630Z,84.70
2023-03-16T14:47:42.204Z,81.30
2023-03-16T14:50:16.426Z,104.30
2023-03-16T14:52:45.375Z,85.40
2023-03-16T14:55:15.035Z,97.30
2023-03-16T14:57:44.723Z,80.00
2023-03-16T15:00:16.191Z,74.00
2023-03-16T15:02:51.367Z,80.40
2023-03-16T15:05:28.595Z,84.30
2023-03-16T15:07:56.397Z,80.30
2023-03-16T15:10:27.109Z,137.00
2023-03-16T15:13:03.890Z,102.60
2023-03-16T15:15:32.069Z,117.30
2023-03-16T15:18:01.740Z,94.70
2023-03-16T15:20:34.841Z,109.90
2023-03-16T15:25:40.116Z,100.40
2023-03-16T15:28:18.431Z,105.10
2023-03-16T15:30:54.450Z,112.80
2023-03-16T15:33:22.983Z,156.60
2023-03-16T15:35:52.369Z,126.50
2023-03-16T15:38:32.873Z,126.50
2023-03-16T15:41:00.104Z,125.00
2023-03-16T15:43:30.491Z,160.10
2023-03-16T15:45:59.483Z,227.80
2023-03-16T15:48:27.127Z,244.60
2023-03-16T15:50:59.664Z,191.40
2023-03-16T15:53:35.577Z,206.30
2023-03-16T15:56:07.953Z,125.70
2023-03-16T15:58:37.872Z,110.70
2023-03-16T16:01:08.213Z,100.40
2023-03-16T16:03:35.209Z,116.00
2023-03-16T16:06:02.491Z,107.10
2023-03-16T16:08:32.511Z,115.00
2023-03-16T16:10:59.904Z,102.50
2023-03-16T16:13:43.121Z,113.40
2023-03-16T16:16:13.963Z,109.20
2023-03-16T16:18:41.859Z,100.60
2023-03-16T16:21:23.305Z,118.90
2023-03-16T16:23:52.309Z,114.10
2023-03-16T16:26:50.049Z,105.90
2023-03-16T16:29:24.375Z,114.80
2023-03-16T16:31:52.652Z,134.60
2023-03-16T16:34:23.766Z,103.50
2023-03-16T16:36:51.290Z,86.20
2023-03-16T16:39:18.413Z,92.30
2023-03-16T16:41:49.422Z,112.30
2023-03-16T16:44:21.084Z,115.50
2023-03-16T16:46:51.869Z,116.70
2023-03-16T16:49:23.627Z,121.30
2023-03-16T16:51:52.089Z,129.20
2023-03-16T16:54:22.489Z,127.10
2023-03-16T16:56:52.677Z,137.30
2023-03-16T16:59:23.954Z,159.20
2023-03-16T17:01:53.465Z,138.30
2023-03-16T17:04:25.531Z,150.00
2023-03-16T17:06:57.895Z,115.70
2023-03-16T17:09:27.686Z,126.00
2023-03-16T17:11:58.195Z,118.80
2023-03-16T17:14:27.621Z,150.70
2023-03-16T17:17:02.112Z,133.10
2023-03-16T17:19:32.242Z,120.90
2023-03-16T17:21:59.359Z,113.20
2023-03-16T17:24:29.306Z,126.50
2023-03-16T17:26:59.698Z,147.70
2023-03-16T17:29:30.965Z,127.80
2023-03-16T17:32:15.060Z,106.20
2023-03-16T17:34:42.459Z,129.50
2023-03-16T17:37:17.362Z,132.20
2023-03-16T17:39:45.272Z,123.40
2023-03-16T17:42:18.038Z,108.00
2023-03-16T17:44:48.175Z,116.20
2023-03-16T17:47:26.944Z,110.80
2023-03-16T17:49:54.247Z,117.00
2023-03-16T17:52:25.101Z,122.90
2023-03-16T17:54:53.637Z,113.10
2023-03-16T17:57:28.736Z,117.20
2023-03-16T17:59:55.948Z,116.90
2023-03-16T18:02:26.054Z,118.00
2023-03-16T18:04:54.496Z,112.30
2023-03-16T18:07:21.841Z,84.50
2023-03-16T18:10:15.494Z,99.40
2023-03-16T18:12:43.812Z,81.00
2023-03-16T18:15:17.848Z,94.50
2023-03-16T18:17:45.731Z,96.80
2023-03-16T18:20:22.827Z,71.10
2023-03-16T18:22:50.462Z,90.80
2023-03-16T18:25:32.562Z,76.20
2023-03-16T18:28:02.148Z,94.30
2023-03-16T18:30:32.397Z,70.20
2023-03-16T18:33:00.518Z,61.40
2023-03-16T18:35:28.492Z,56.20
2023-03-16T18:37:55.857Z,56.00
2023-03-16T18:40:24.149Z,50.50
2023-03-16T18:42:53.854Z,72.40
2023-03-16T18:45:27.294Z,79.40
2023-03-16T18:47:57.454Z,58.00
2023-03-16T18:50:28.177Z,49.40
2023-03-16T18:52:57.791Z,48.70
2023-03-16T18:55:25.352Z,53.30
2023-03-16T18:57:55.917Z,64.80
2023-03-16T19:00:29.224Z,70.00
2023-03-16T19:03:00.168Z,67.80
2023-03-16T19:05:36.228Z,97.00
2023-03-16T19:08:04.654Z,75.40
2023-03-16T19:10:36.277Z,72.00
2023-03-16T19:13:10.988Z,87.10
2023-03-16T19:15:38.740Z,88.20
2023-03-16T19:18:05.710Z,69.00
2023-03-16T19:20:34.771Z,69.10
2023-03-16T19:23:15.554Z,58.90
2023-03-16T19:25:42.857Z,68.00
2023-03-16T19:28:17.447Z,85.70
2023-03-16T19:30:47.029Z,51.40
2023-03-16T19:33:20.397Z,69.30
2023-03-16T19:35:55.347Z,47.70
2023-03-16T19:38:25.792Z,54.80
2023-03-16T19:40:56.172Z,50.80
2023-03-16T19:43:26.632Z,50.70
2023-03-16T19:45:55.898Z,52.50
2023-03-16T19:48:32.362Z,59.00
2023-03-16T19:51:00.023Z,91.40
2023-03-16T19:53:29.334Z,46.50
2023-03-16T19:55:56.642Z,52.30
2023-03-16T19:58:30.193Z,54.10
2023-03-16T20:00:58.419Z,75.30
2023-03-16T20:03:25.623Z,59.60
2023-03-16T20:05:53.086Z,51.90
2023-03-16T20:08:26.375Z,60.40
2023-03-16T20:11:01.686Z,48.00
2023-03-16T20:13:36.120Z,78.10
2023-03-16T20:16:03.378Z,54.70
2023-03-16T20:18:30.451Z,65.60
2023-03-16T20:21:04.510Z,49.40
2023-03-16T20:23:34.491Z,51.80
2023-03-16T20:26:02.925Z,45.00
2023-03-16T20:28:37.952Z,56.80
2023-03-16T20:31:08.886Z,38.90
2023-03-16T20:33:37.637Z,51.30
2023-03-16T20:36:05.087Z,60.90
2023-03-16T20:38:33.009Z,45.20
2023-03-16T20:41:00.630Z,56.70
2023-03-16T20:43:31.002Z,62.30
2023-03-16T20:46:00.962Z,64.50
2023-03-16T20:48:28.783Z,55.50
2023-03-16T20:50:57.773Z,56.10
2023-03-16T20:53:26.700Z,59.70
2023-03-16T20:55:55.884Z,76.00
2023-03-16T20:58:27.575Z,71.40
2023-03-16T21:00:57.157Z,81.60
2023-03-16T21:03:29.668Z,67.40
2023-03-16T21:05:59.693Z,52.60
2023-03-16T21:08:27.404Z,56.70
2023-03-16T21:11:00.772Z,59.50
2023-03-16T21:13:32.602Z,63.60
2023-03-16T21:16:02.876Z,64.90
2023-03-16T21:18:34.395Z,72.10
2023-03-16T21:21:02.697Z,52.80
2023-03-16T21:23:29.761Z,54.80
2023-03-16T21:26:00.877Z,48.40
2023-03-16T21:28:32.958Z,48.80
2023-03-16T21:31:00.585Z,54.70
2023-03-16T21:33:41.541Z,67.80
2023-03-16T21:36:17.965Z,77.10
2023-03-16T21:38:46.852Z,57.00
2023-03-16T21:41:16.173Z,56.90
2023-03-16T21:43:44.289Z,58.80
2023-03-16T21:46:20.198Z,73.40
2023-03-16T21:48:51.679Z,55.40
2023-03-16T21:51:24.449Z,46.50
2023-03-16T21:53:52.937Z,41.50
2023-03-16T21:56:23.277Z,52.20
2023-03-16T21:58:52.207Z,67.80
2023-03-16T22:01:30.999Z,50.60
2023-03-16T22:04:08.713Z,43.60
2023-03-16T22:06:36.112Z,59.30
2023-03-16T22:09:03.604Z,52.30
2023-03-16T22:11:31.545Z,43.00
2023-03-16T22:13:59.789Z,54.60
2023-03-16T22:16:32.948Z,65.10
2023-03-16T22:19:01.507Z,81.90
2023-03-16T22:21:44.561Z,73.20
2023-03-16T22:24:16.953Z,71.50
2023-03-16T22:26:44.047Z,69.00
2023-03-16T22:29:30.505Z,77.10
2023-03-16T22:32:03.623Z,56.40
2023-03-16T22:34:32.190Z,67.30
2023-03-16T22:37:01.381Z,64.30
2023-03-16T22:39:33.717Z,80.10
2023-03-16T22:42:16.060Z,77.40
2023-03-16T22:44:43.107Z,83.10
2023-03-16T22:47:28.594Z,97.30
2023-03-16T22:49:55.553Z,74.40
2023-03-16T22:52:28.370Z,88.60
2023-03-16T22:54:57.189Z,85.20
2023-03-16T22:57:24.564Z,60.80
2023-03-16T22:59:52.451Z,59.50
2023-03-16T23:02:23.882Z,80.30
2023-03-16T23:04:50.956Z,63.90
2023-03-16T23:07:19.221Z,73.50
2023-03-16T23:09:47.970Z,89.80
2023-03-16T23:12:21.434Z,72.00
2023-03-16T23:14:49.469Z,82.20
2023-03-16T23:17:21.677Z,102.50
2023-03-16T23:19:54.295Z,70.60
2023-03-16T23:22:21.274Z,92.30
2023-03-16T23:24:48.133Z,105.20
2023-03-16T23:27:21.762Z,93.90
2023-03-16T23:29:49.155Z,86.40
2023-03-16T23:32:16.990Z,92.00
2023-03-16T23:34:44.165Z,71.60
2023-03-16T23:37:11.359Z,102.50
2023-03-16T23:39:39.426Z,110.20
2023-03-16T23:42:07.018Z,59.30
2023-03-16T23:44:34.136Z,83.00
2023-03-16T23:47:01.791Z,67.90
2023-03-16T23:49:41.988Z,58.60
2023-03-16T23:52:11.754Z,91.90
2023-03-16T23:54:38.611Z,76.60
2023-03-16T23:57:05.696Z,73.00
2023-03-16T23:59:33.048Z,81.10
